Time;durP1;ratioP1;P1;durP2;ratioP2;P2;SDS_P1;SDS_P2;PMS_P1;PMS_P2;Temp;Humidity;BMP_temperature;BMP_pressure;BME280_temperature;BME280_humidity;BME280_pressure;Samples;Min_cycle;Max_cycle;Signal;HPM_P1;HPM_P2
2024/04/15 00:00:19;;;;;;;;;;;;;;;13.18;40.34;101427.88;5245823;27;19932;-89
2024/04/15 00:02:45;;;;;;;;;;;;;;;13.14;40.00;101426.72;5247401;27;19947;-89
2024/04/15 00:05:10;;;;;;;;;;;;;;;13.12;40.16;101429.69;5236560;27;20479;-89
2024/04/15 00:07:35;;;;;;;;;;;;;;;13.10;40.36;101422.88;5239554;27;20014;-89
2024/04/15 00:10:00;;;;;;;;;;;;;;;13.08;40.52;101425.00;5236674;27;20330;-90
2024/04/15 00:12:25;;;;;;;;;;;;;;;13.07;40.76;101429.59;5236211;27;19931;-89
2024/04/15 00:14:51;;;;;;;;;;;;;;;13.06;40.71;101422.56;5243790;27;20898;-89
2024/04/15 00:17:16;;;;;;;;;;;;;;;13.07;40.30;101429.59;5239962;27;19940;-89
2024/04/15 00:19:41;;;;;;;;;;;;;;;13.06;40.65;101421.75;5243550;27;19942;-89
2024/04/15 00:22:07;;;;;;;;;;;;;;;13.05;40.28;101417.44;5227952;27;19943;-89
2024/04/15 00:24:32;;;;;;;;;;;;;;;13.04;40.75;101408.56;5237815;27;19938;-89
2024/04/15 00:26:58;;;;;;;;;;;;;;;13.02;40.56;101405.31;5245402;27;19984;-89
2024/04/15 00:29:23;;;;;;;;;;;;;;;12.99;40.74;101393.19;5251623;27;19936;-89
2024/04/15 00:31:49;;;;;;;;;;;;;;;13.00;40.57;101391.28;5232118;27;20472;-90
2024/04/15 00:34:14;;;;;;;;;;;;;;;13.00;40.34;101394.81;5249034;27;19975;-89
2024/04/15 00:36:39;;;;;;;;;;;;;;;12.99;40.28;101401.25;5242726;27;19939;-89
2024/04/15 00:39:05;;;;;;;;;;;;;;;12.97;40.39;101397.19;5239358;27;19937;-89
2024/04/15 00:41:30;;;;;;;;;;;;;;;12.97;40.57;101394.50;5247746;27;19931;-89
2024/04/15 00:43:55;;;;;;;;;;;;;;;13.00;40.56;101388.59;5248269;27;19943;-89
2024/04/15 00:46:21;;;;;;;;;;;;;;;13.01;40.27;101382.16;5249883;27;19936;-89
2024/04/15 00:48:46;;;;;;;;;;;;;;;13.02;40.44;101384.59;5237702;27;20630;-89
2024/04/15 00:51:12;;;;;;;;;;;;;;;13.03;40.48;101388.09;5245881;27;19936;-90
2024/04/15 00:53:37;;;;;;;;;;;;;;;13.04;40.59;101386.22;5247373;27;20007;-89
2024/04/15 00:56:03;;;;;;;;;;;;;;;13.04;40.58;101368.22;5236178;27;19943;-89
2024/04/15 00:58:29;;;;;;;;;;;;;;;13.02;40.80;101368.47;5254837;27;19938;-90
2024/04/15 01:00:56;;;;;;;;;;;;;;;13.03;40.37;101369.28;5241319;27;19944;-89
2024/04/15 01:03:22;;;;;;;;;;;;;;;13.02;40.75;101379.22;5224679;27;20015;-89
2024/04/15 01:05:47;;;;;;;;;;;;;;;13.01;40.46;101385.66;5241087;27;19939;-90
2024/04/15 01:08:12;;;;;;;;;;;;;;;13.00;40.52;101375.97;5213976;27;19939;-89
2024/04/15 01:10:37;;;;;;;;;;;;;;;12.99;40.67;101376.22;5231327;27;19932;-89
2024/04/15 01:13:03;;;;;;;;;;;;;;;12.99;40.62;101368.16;5234601;27;19936;-89
2024/04/15 01:15:28;;;;;;;;;;;;;;;12.97;40.83;101370.28;5222690;27;19939;-89
2024/04/15 01:17:54;;;;;;;;;;;;;;;12.95;40.51;101370.53;5249348;27;19936;-89
2024/04/15 01:20:19;;;;;;;;;;;;;;;12.93;40.89;101361.91;5229917;27;19939;-88
2024/04/15 01:23:03;;;;;;;;;;;;;;;12.93;40.74;101350.31;5248472;27;19938;-89
2024/04/15 01:25:28;;;;;;;;;;;;;;;12.91;41.11;101350.56;5257437;27;19932;-89
2024/04/15 01:27:53;;;;;;;;;;;;;;;12.90;41.20;101343.53;5242244;27;19939;-89
2024/04/15 01:30:18;;;;;;;;;;;;;;;12.91;41.03;101355.94;5254476;27;19936;-89
2024/04/15 01:32:44;;;;;;;;;;;;;;;12.91;41.25;101328.22;5235883;27;19943;-89
2024/04/15 01:35:09;;;;;;;;;;;;;;;12.90;41.22;101335.47;5231583;27;20413;-90
2024/04/15 01:37:34;;;;;;;;;;;;;;;12.89;41.75;101333.84;5250989;27;19931;-89
2024/04/15 01:39:59;;;;;;;;;;;;;;;12.90;41.50;101326.59;5240089;27;19931;-89
2024/04/15 01:42:24;;;;;;;;;;;;;;;12.88;41.45;101340.28;5228911;27;20451;-88
2024/04/15 01:44:49;;;;;;;;;;;;;;;12.86;41.79;101339.72;5223534;27;19932;-90
2024/04/15 01:47:15;;;;;;;;;;;;;;;12.85;42.57;101346.19;5241714;27;19932;-90
2024/04/15 01:49:40;;;;;;;;;;;;;;;12.84;42.42;101354.50;5224215;27;19931;-90
2024/04/15 01:52:05;;;;;;;;;;;;;;;12.82;42.47;101330.53;5227376;27;19940;-89
2024/04/15 01:54:30;;;;;;;;;;;;;;;12.78;43.69;101321.34;5243150;27;20559;-90
2024/04/15 01:56:55;;;;;;;;;;;;;;;12.78;43.11;101345.56;5227967;27;20204;-89
2024/04/15 01:59:21;;;;;;;;;;;;;;;12.76;43.05;101352.25;5228791;27;19946;-90
2024/04/15 02:01:46;;;;;;;;;;;;;;;12.76;43.67;101336.09;5237088;27;19932;-89
2024/04/15 02:04:11;;;;;;;;;;;;;;;12.74;43.53;101325.56;5226417;27;20143;-90
2024/04/15 02:06:36;;;;;;;;;;;;;;;12.74;43.38;101333.63;5229089;27;19931;-90
2024/04/15 02:09:02;;;;;;;;;;;;;;;12.73;43.32;101340.09;5241630;27;19943;-89
2024/04/15 02:11:27;;;;;;;;;;;;;;;12.73;43.70;101345.47;5234432;27;19947;-89
2024/04/15 02:13:52;;;;;;;;;;;;;;;12.71;43.46;101352.97;5228294;27;20298;-90
2024/04/15 02:16:17;;;;;;;;;;;;;;;12.69;44.04;101341.66;5229502;27;19946;-89
2024/04/15 02:18:42;;;;;;;;;;;;;;;12.68;43.99;101340.84;5230383;27;19938;-89
2024/04/15 02:21:08;;;;;;;;;;;;;;;12.67;44.09;101338.38;5240306;27;19939;-90
2024/04/15 02:23:33;;;;;;;;;;;;;;;12.65;43.71;101329.75;5236574;27;20321;-89
2024/04/15 02:25:58;;;;;;;;;;;;;;;12.64;43.98;101328.13;5226683;27;20723;-89
2024/04/15 02:28:23;;;;;;;;;;;;;;;12.64;43.52;101318.19;5245443;27;19992;-89
2024/04/15 02:30:51;;;;;;;;;;;;;;;12.64;43.60;101322.75;5230141;27;19936;-89
2024/04/15 02:33:17;;;;;;;;;;;;;;;12.63;43.92;101313.06;5228786;27;19939;-90
2024/04/15 02:35:42;;;;;;;;;;;;;;;12.62;44.42;101304.19;5217250;27;19932;-89
2024/04/15 02:38:07;;;;;;;;;;;;;;;12.60;45.13;101302.81;5233405;27;19932;-90
2024/04/15 02:40:33;;;;;;;;;;;;;;;12.56;45.23;101296.28;5226864;27;19932;-90
2024/04/15 02:42:58;;;;;;;;;;;;;;;12.53;45.16;101289.53;5224027;27;19944;-90
2024/04/15 02:45:24;;;;;;;;;;;;;;;12.53;45.15;101269.91;5231804;27;19940;-89
2024/04/15 02:47:49;;;;;;;;;;;;;;;12.54;44.50;101269.66;5234092;27;19938;-89
2024/04/15 02:50:16;;;;;;;;;;;;;;;12.57;44.15;101269.19;5239129;27;22425;-89
2024/04/15 02:52:41;;;;;;;;;;;;;;;12.56;43.81;101269.41;5239078;27;19932;-90
2024/04/15 02:55:07;;;;;;;;;;;;;;;12.55;44.30;101263.22;5222609;27;19947;-89
2024/04/15 02:57:32;;;;;;;;;;;;;;;12.54;44.49;101252.72;5228512;27;20443;-90
2024/04/15 02:59:57;;;;;;;;;;;;;;;12.51;44.35;101258.59;5204349;27;20511;-90
2024/04/15 03:02:22;;;;;;;;;;;;;;;12.49;44.57;101263.41;5251566;27;19931;-91
2024/04/15 03:04:48;;;;;;;;;;;;;;;12.46;44.42;101247.78;5247742;27;19941;-90
2024/04/15 03:07:13;;;;;;;;;;;;;;;12.46;44.21;101247.78;5236183;27;19963;-90
2024/04/15 03:09:38;;;;;;;;;;;;;;;12.47;44.28;101246.72;5224115;27;19932;-90
2024/04/15 03:12:04;;;;;;;;;;;;;;;12.45;44.43;101249.66;5236122;27;19931;-89
2024/04/15 03:14:30;;;;;;;;;;;;;;;12.42;44.82;101242.09;5225653;27;19968;-90
2024/04/15 03:16:55;;;;;;;;;;;;;;;12.41;44.61;101243.16;5242952;27;19939;-89
2024/04/15 03:19:20;;;;;;;;;;;;;;;12.39;44.91;101239.91;5218270;27;19940;-89
2024/04/15 03:21:46;;;;;;;;;;;;;;;12.37;45.06;101236.63;5235119;27;19967;-88
2024/04/15 03:24:11;;;;;;;;;;;;;;;12.35;44.97;101236.06;5248689;27;20728;-89
2024/04/15 03:26:36;;;;;;;;;;;;;;;12.33;45.98;101247.06;5225133;27;19935;-90
2024/04/15 03:29:01;;;;;;;;;;;;;;;12.30;45.81;101239.50;5242135;27;19999;-90
2024/04/15 03:31:26;;;;;;;;;;;;;;;12.30;45.92;101244.88;5237945;27;20001;-90
2024/04/15 03:33:52;;;;;;;;;;;;;;;12.29;45.92;101245.13;5249440;27;20353;-90
2024/04/15 03:36:17;;;;;;;;;;;;;;;12.30;45.94;101234.13;5219059;27;19938;-90
2024/04/15 03:38:42;;;;;;;;;;;;;;;12.30;45.95;101246.75;5213636;27;19932;-89
2024/04/15 03:41:08;;;;;;;;;;;;;;;12.29;46.46;101250.50;5233611;27;19971;-90
2024/04/15 03:43:33;;;;;;;;;;;;;;;12.27;46.08;101237.31;5239916;27;19959;-89
2024/04/15 03:45:58;;;;;;;;;;;;;;;12.27;46.35;101241.88;5233622;27;19935;-89
2024/04/15 03:48:23;;;;;;;;;;;;;;;12.25;46.27;101238.63;5237061;27;19964;-89
2024/04/15 03:50:49;;;;;;;;;;;;;;;12.24;46.17;101223.56;5235142;27;19944;-90
2024/04/15 03:53:14;;;;;;;;;;;;;;;12.22;47.05;101215.75;5229027;27;19932;-90
2024/04/15 03:55:39;;;;;;;;;;;;;;;12.19;46.60;101223.47;5229587;27;19946;-90
2024/04/15 03:58:04;;;;;;;;;;;;;;;12.17;46.46;101217.53;5228870;27;20597;-90
2024/04/15 04:00:30;;;;;;;;;;;;;;;12.18;46.55;101211.09;5232680;27;19931;-90
2024/04/15 04:02:55;;;;;;;;;;;;;;;12.18;47.00;101211.91;5234521;27;20277;-90
2024/04/15 04:05:20;;;;;;;;;;;;;;;12.15;47.29;101217.78;5249949;27;19943;-88
2024/04/15 04:07:45;;;;;;;;;;;;;;;12.15;47.17;101222.34;5245741;27;19932;-90
2024/04/15 04:10:11;;;;;;;;;;;;;;;12.12;47.06;101222.84;5239831;27;19931;-89
2024/04/15 04:12:36;;;;;;;;;;;;;;;12.09;46.86;101222.28;5235360;27;20635;-89
2024/04/15 04:15:01;;;;;;;;;;;;;;;12.06;46.87;101213.91;5231255;27;19964;-90
2024/04/15 04:17:26;;;;;;;;;;;;;;;12.03;46.76;101217.91;5259955;27;20006;-89
2024/04/15 04:19:53;;;;;;;;;;;;;;;12.01;47.08;101216.50;5219365;27;20497;-90
2024/04/15 04:22:18;;;;;;;;;;;;;;;11.98;46.99;101211.63;5236052;27;19971;-90
2024/04/15 04:24:44;;;;;;;;;;;;;;;11.94;46.94;101194.38;5236252;27;19960;-90
2024/04/15 04:27:09;;;;;;;;;;;;;;;11.90;46.80;101187.88;5236239;27;19943;-90
2024/04/15 04:29:34;;;;;;;;;;;;;;;11.87;47.07;101194.56;5242778;27;19938;-90
2024/04/15 04:31:59;;;;;;;;;;;;;;;11.84;47.17;101196.91;5230878;27;20819;-90
2024/04/15 04:34:25;;;;;;;;;;;;;;;11.78;47.13;101196.84;5221631;27;20273;-90
2024/04/15 04:36:50;;;;;;;;;;;;;;;11.74;47.46;101193.00;5232383;27;19932;-90
2024/04/15 04:39:15;;;;;;;;;;;;;;;11.71;47.33;101193.50;5240599;27;19943;-90
2024/04/15 04:41:40;;;;;;;;;;;;;;;11.69;47.55;101192.09;5237370;27;19938;-89
2024/04/15 04:44:05;;;;;;;;;;;;;;;11.67;47.39;101200.41;5235450;27;19964;-89
2024/04/15 04:46:31;;;;;;;;;;;;;;;11.68;47.43;101193.16;5234052;27;20538;-90
2024/04/15 04:48:56;;;;;;;;;;;;;;;11.69;47.32;101200.97;5231817;27;19935;-91
2024/04/15 04:51:21;;;;;;;;;;;;;;;11.70;47.41;101199.91;5232163;27;20001;-90
2024/04/15 04:53:46;;;;;;;;;;;;;;;11.72;47.63;101197.78;5234646;27;19931;-88
2024/04/15 04:56:13;;;;;;;;;;;;;;;11.74;47.97;101198.34;5222579;27;19943;-90
2024/04/15 04:58:39;;;;;;;;;;;;;;;11.76;48.11;101206.16;5224841;27;19940;-89
2024/04/15 05:01:10;;;;;;;;;;;;;;;11.76;49.41;101204.28;5220143;27;19932;-89
2024/04/15 05:03:36;;;;;;;;;;;;;;;11.78;48.53;101204.06;5242021;27;19951;-90
2024/04/15 05:06:08;;;;;;;;;;;;;;;11.80;48.82;101197.41;5220330;27;19932;-90
2024/04/15 05:08:33;;;;;;;;;;;;;;;11.86;48.46;101201.00;5232991;27;19935;-90
2024/04/15 05:10:58;;;;;;;;;;;;;;;11.90;49.09;101202.13;5236200;27;19934;-89
2024/04/15 05:13:24;;;;;;;;;;;;;;;11.95;48.80;101206.75;5237302;27;19932;-90
2024/04/15 05:15:49;;;;;;;;;;;;;;;12.01;48.64;101200.41;5233010;27;19932;-89
2024/04/15 05:18:14;;;;;;;;;;;;;;;12.06;48.85;101193.25;5243638;27;19939;-90
2024/04/15 05:20:39;;;;;;;;;;;;;;;12.12;48.17;101193.31;5233611;27;20365;-90
2024/04/15 05:23:04;;;;;;;;;;;;;;;12.17;48.58;101196.88;5241001;27;19979;-90
2024/04/15 05:25:30;;;;;;;;;;;;;;;12.25;48.61;101190.28;5249174;27;19931;-90
2024/04/15 05:27:55;;;;;;;;;;;;;;;12.34;47.99;101194.94;5248290;27;19932;-90
2024/04/15 05:30:20;;;;;;;;;;;;;;;12.40;47.99;101183.22;5250900;27;19947;-90
2024/04/15 05:32:45;;;;;;;;;;;;;;;12.45;47.85;101189.72;5243723;27;20383;-89
2024/04/15 05:35:11;;;;;;;;;;;;;;;12.53;46.99;101190.09;5239954;27;19998;-89
2024/04/15 05:37:36;;;;;;;;;;;;;;;12.61;47.35;101186.16;5238938;27;19931;-89
2024/04/15 05:40:01;;;;;;;;;;;;;;;12.66;47.57;101186.22;5228207;27;19932;-89
2024/04/15 05:42:26;;;;;;;;;;;;;;;12.71;47.09;101184.38;5213270;27;19943;-89
2024/04/15 05:44:52;;;;;;;;;;;;;;;12.76;47.20;101180.97;5240508;27;20521;-89
2024/04/15 05:47:17;;;;;;;;;;;;;;;12.79;47.04;101176.97;5238677;27;20782;-88
2024/04/15 05:49:42;;;;;;;;;;;;;;;12.86;46.92;101181.06;5251563;27;19930;-89
2024/04/15 05:52:07;;;;;;;;;;;;;;;12.95;46.76;101178.75;5224398;27;19960;-89
2024/04/15 05:54:32;;;;;;;;;;;;;;;12.98;47.10;101178.25;5237327;27;19944;-89
2024/04/15 05:56:58;;;;;;;;;;;;;;;13.02;46.52;101172.09;5244243;27;20518;-88
2024/04/15 05:59:23;;;;;;;;;;;;;;;13.07;46.29;101170.50;5250348;27;19932;-89
2024/04/15 06:01:48;;;;;;;;;;;;;;;13.06;46.38;101168.91;5223497;27;19975;-89
2024/04/15 06:04:13;;;;;;;;;;;;;;;13.07;46.34;101170.50;5231482;27;20014;-89
2024/04/15 06:06:39;;;;;;;;;;;;;;;13.15;45.82;101162.81;5254704;27;19931;-89
2024/04/15 06:09:04;;;;;;;;;;;;;;;13.22;45.86;101166.13;5247207;27;20370;-88
2024/04/15 06:11:29;;;;;;;;;;;;;;;13.26;45.85;101161.03;5250104;27;19931;-88
2024/04/15 06:13:54;;;;;;;;;;;;;;;13.30;45.91;101165.69;5248152;27;20007;-89
2024/04/15 06:16:20;;;;;;;;;;;;;;;13.34;46.11;101157.09;5242242;27;19935;-89
2024/04/15 06:18:45;;;;;;;;;;;;;;;13.43;45.87;101156.34;5229415;27;19959;-89
2024/04/15 06:21:11;;;;;;;;;;;;;;;13.53;46.07;101151.06;5254168;27;20351;-88
2024/04/15 06:23:36;;;;;;;;;;;;;;;13.62;45.81;101146.00;5250936;27;19938;-88
2024/04/15 06:26:01;;;;;;;;;;;;;;;13.70;45.79;101153.59;5244981;27;19931;-89
2024/04/15 06:28:27;;;;;;;;;;;;;;;13.82;45.78;101139.94;5251870;27;19938;-88
2024/04/15 06:30:52;;;;;;;;;;;;;;;13.92;45.49;101140.00;5233348;27;20035;-88
2024/04/15 06:33:17;;;;;;;;;;;;;;;14.03;45.58;101139.00;5245213;27;20404;-88
2024/04/15 06:35:42;;;;;;;;;;;;;;;14.07;45.09;101134.69;5255262;27;19938;-88
2024/04/15 06:38:09;;;;;;;;;;;;;;;14.03;45.53;101128.22;5249090;27;19931;-88
2024/04/15 06:40:34;;;;;;;;;;;;;;;14.04;45.18;101140.63;5236074;27;20001;-88
2024/04/15 06:43:01;;;;;;;;;;;;;;;14.01;45.05;101124.97;5236156;27;20412;-88
2024/04/15 06:45:26;;;;;;;;;;;;;;;14.08;45.35;101130.13;5211534;27;19943;-89
2024/04/15 06:47:53;;;;;;;;;;;;;;;14.20;44.91;101120.75;5246146;27;19932;-89
2024/04/15 06:50:18;;;;;;;;;;;;;;;14.35;44.95;101122.69;5207654;27;19940;-88
2024/04/15 06:52:43;;;;;;;;;;;;;;;14.51;45.50;101120.88;5227281;27;20735;-89
2024/04/15 06:55:09;;;;;;;;;;;;;;;14.65;44.86;101115.81;5234078;27;20529;-89
2024/04/15 06:57:34;;;;;;;;;;;;;;;14.80;44.48;101113.16;5243521;27;19931;-89
2024/04/15 07:00:00;;;;;;;;;;;;;;;14.95;44.63;101105.09;5233506;27;19931;-89
2024/04/15 07:02:25;;;;;;;;;;;;;;;15.05;44.53;101107.78;5256670;27;19937;-89
2024/04/15 07:04:51;;;;;;;;;;;;;;;15.10;43.87;101094.31;5230796;27;20456;-89
2024/04/15 07:07:16;;;;;;;;;;;;;;;15.12;44.22;101099.44;5239110;27;19951;-89
2024/04/15 07:09:41;;;;;;;;;;;;;;;15.20;44.38;101090.78;5235350;27;20394;-89
2024/04/15 07:12:07;;;;;;;;;;;;;;;15.30;44.53;101082.69;5244612;27;20001;-90
2024/04/15 07:14:32;;;;;;;;;;;;;;;15.39;43.70;101089.16;5243128;27;19936;-90
2024/04/15 07:16:57;;;;;;;;;;;;;;;15.43;44.04;101084.81;5224092;27;20276;-90
2024/04/15 07:19:22;;;;;;;;;;;;;;;15.47;43.43;101078.91;5240014;27;19975;-90
2024/04/15 07:21:48;;;;;;;;;;;;;;;15.46;43.85;101077.28;5239216;27;19939;-89
2024/04/15 07:24:13;;;;;;;;;;;;;;;15.49;43.61;101082.13;5251948;27;19932;-89
2024/04/15 07:26:40;;;;;;;;;;;;;;;15.60;44.02;101087.25;5244378;27;19943;-89
2024/04/15 07:29:05;;;;;;;;;;;;;;;15.74;43.33;101071.28;5245775;27;19947;-89
2024/04/15 07:31:30;;;;;;;;;;;;;;;15.87;43.44;101073.44;5252100;27;19931;-90
2024/04/15 07:33:56;;;;;;;;;;;;;;;16.02;43.46;101070.69;5239850;27;19944;-89
2024/04/15 07:36:21;;;;;;;;;;;;;;;16.11;42.62;101059.28;5230124;27;19940;-89
2024/04/15 07:38:47;;;;;;;;;;;;;;;16.21;43.69;101064.66;5236934;27;20435;-89
2024/04/15 07:41:12;;;;;;;;;;;;;;;16.33;42.96;101062.41;5247995;27;19990;-89
2024/04/15 07:43:37;;;;;;;;;;;;;;;16.45;42.55;101056.66;5238937;27;20003;-89
2024/04/15 07:46:02;;;;;;;;;;;;;;;16.55;42.21;101054.72;5255239;27;20002;-90
2024/04/15 07:48:27;;;;;;;;;;;;;;;16.58;41.51;101056.88;5227001;27;20007;-89
2024/04/15 07:50:53;;;;;;;;;;;;;;;16.66;41.49;101051.94;5238796;27;19943;-88
2024/04/15 07:53:18;;;;;;;;;;;;;;;16.71;41.22;101050.06;5249080;27;19950;-88
2024/04/15 07:55:44;;;;;;;;;;;;;;;16.63;40.67;101050.59;5241321;27;19931;-89
2024/04/15 07:58:09;;;;;;;;;;;;;;;16.54;41.41;101050.41;5230707;27;19932;-89
2024/04/15 08:00:34;;;;;;;;;;;;;;;16.53;40.69;101047.97;5246043;27;20369;-89
2024/04/15 08:03:01;;;;;;;;;;;;;;;16.57;40.96;101044.44;5240991;27;19948;-89
2024/04/15 08:05:26;;;;;;;;;;;;;;;16.63;39.89;101042.47;5242826;27;19931;-89
2024/04/15 08:07:52;;;;;;;;;;;;;;;16.72;39.82;101035.44;5240718;27;20341;-89
2024/04/15 08:10:17;;;;;;;;;;;;;;;16.86;39.90;101035.56;5227359;27;19940;-90
2024/04/15 08:12:43;;;;;;;;;;;;;;;16.89;39.62;101035.03;5235778;27;20558;-89
2024/04/15 08:15:08;;;;;;;;;;;;;;;16.87;38.87;101042.59;5233991;27;19931;-88
2024/04/15 08:17:33;;;;;;;;;;;;;;;16.83;38.98;101034.25;5232726;27;19932;-88
2024/04/15 08:19:58;;;;;;;;;;;;;;;16.86;38.60;101030.97;5243077;27;20368;-89
2024/04/15 08:22:24;;;;;;;;;;;;;;;16.72;38.47;101029.22;5237656;27;20400;-90
2024/04/15 08:24:49;;;;;;;;;;;;;;;16.63;39.41;101032.47;5237310;27;19932;-89
2024/04/15 08:27:15;;;;;;;;;;;;;;;16.67;39.64;101029.22;5248359;27;19931;-89
2024/04/15 08:29:42;;;;;;;;;;;;;;;16.76;38.99;101031.06;5236228;27;19932;-89
2024/04/15 08:32:07;;;;;;;;;;;;;;;16.82;38.96;101029.13;5237794;27;19938;-88
2024/04/15 08:34:32;;;;;;;;;;;;;;;16.88;39.09;101022.59;5260971;27;19931;-89
2024/04/15 08:36:57;;;;;;;;;;;;;;;16.94;39.13;101010.63;5234975;27;19933;-90
2024/04/15 08:39:22;;;;;;;;;;;;;;;16.99;38.80;101010.56;5249406;27;20268;-88
2024/04/15 08:41:50;;;;;;;;;;;;;;;16.99;39.21;101002.47;5234500;27;20002;-89
2024/04/15 08:44:18;;;;;;;;;;;;;;;16.96;39.20;100994.91;5231566;27;19943;-89
2024/04/15 08:46:44;;;;;;;;;;;;;;;17.02;39.10;100993.75;5243232;27;19932;-90
2024/04/15 08:49:09;;;;;;;;;;;;;;;17.11;39.53;100996.66;5225700;27;19931;-89
2024/04/15 08:51:35;;;;;;;;;;;;;;;17.14;39.34;100993.38;5230085;27;19944;-89
2024/04/15 08:54:00;;;;;;;;;;;;;;;17.17;39.08;100990.09;5224537;27;19940;-88
2024/04/15 08:56:25;;;;;;;;;;;;;;;17.15;38.79;100995.00;5231652;27;19932;-89
2024/04/15 08:58:54;;;;;;;;;;;;;;;17.12;38.98;100984.75;5240056;27;20400;-92
2024/04/15 09:01:20;;;;;;;;;;;;;;;17.16;39.04;100981.19;5240473;27;20537;-88
2024/04/15 09:03:46;;;;;;;;;;;;;;;17.18;39.09;100973.56;5221726;27;20003;-89
2024/04/15 09:06:12;;;;;;;;;;;;;;;17.17;38.63;100971.97;5238395;27;19943;-91
2024/04/15 09:08:37;;;;;;;;;;;;;;;17.15;39.09;100981.47;5242522;27;19942;-90
2024/04/15 09:11:02;;;;;;;;;;;;;;;17.09;38.26;100974.50;5250078;27;20309;-89
2024/04/15 09:13:28;;;;;;;;;;;;;;;16.95;38.38;100968.94;5257861;27;19938;-90
2024/04/15 09:15:53;;;;;;;;;;;;;;;16.99;38.38;100975.38;5237572;27;19939;-90
2024/04/15 09:18:19;;;;;;;;;;;;;;;17.00;38.74;100976.19;5225408;27;19932;-88
2024/04/15 09:20:47;;;;;;;;;;;;;;;16.94;38.94;100970.03;5245085;27;19932;-88
2024/04/15 09:23:12;;;;;;;;;;;;;;;16.97;38.96;100972.16;5236695;27;19955;-89
2024/04/15 09:25:38;;;;;;;;;;;;;;;17.04;38.78;100961.00;5241325;27;20076;-90
2024/04/15 09:28:04;;;;;;;;;;;;;;;17.14;38.97;100963.59;5234893;27;19932;-90
2024/04/15 09:30:30;;;;;;;;;;;;;;;17.17;38.93;100960.31;5251359;27;19939;-90
2024/04/15 09:32:55;;;;;;;;;;;;;;;17.10;38.60;100949.84;5251501;27;19931;-90
2024/04/15 09:35:21;;;;;;;;;;;;;;;17.18;38.90;100951.09;5238216;27;19948;-91
2024/04/15 09:37:47;;;;;;;;;;;;;;;17.32;39.24;100940.41;5238632;27;19931;-90
2024/04/15 09:40:15;;;;;;;;;;;;;;;17.39;39.23;100932.72;5223184;27;19961;-91
2024/04/15 09:42:41;;;;;;;;;;;;;;;17.43;39.52;100940.00;5253728;27;19940;-90
2024/04/15 09:45:09;;;;;;;;;;;;;;;17.60;38.83;100936.03;5245848;27;19938;-91
2024/04/15 09:47:34;;;;;;;;;;;;;;;17.75;38.53;100935.81;5221354;27;19939;-89
2024/04/15 09:50:00;;;;;;;;;;;;;;;17.86;38.75;100940.03;5244709;27;20671;-90
2024/04/15 09:52:30;;;;;;;;;;;;;;;17.85;38.10;100929.47;5219701;27;19942;-90
2024/04/15 09:54:57;;;;;;;;;;;;;;;17.87;38.98;100919.16;5244060;27;19980;-90
2024/04/15 09:57:26;;;;;;;;;;;;;;;17.95;39.05;100918.47;5242171;27;19940;-90
2024/04/15 09:59:58;;;;;;;;;;;;;;;18.08;39.01;100915.03;5228148;27;19947;-89
2024/04/15 10:02:29;;;;;;;;;;;;;;;18.17;38.47;100912.50;5240700;27;19932;-90
2024/04/15 10:04:57;;;;;;;;;;;;;;;18.22;38.33;100899.66;5255396;27;19932;-89
2024/04/15 10:07:25;;;;;;;;;;;;;;;18.34;38.74;100888.34;5251467;27;19938;-89
2024/04/15 10:09:50;;;;;;;;;;;;;;;18.36;38.08;100884.22;5235212;27;19931;-90
2024/04/15 10:12:16;;;;;;;;;;;;;;;18.37;38.44;100872.28;5236738;27;19942;-89
2024/04/15 10:14:42;;;;;;;;;;;;;;;18.39;38.66;100863.84;5225790;27;19938;-89
2024/04/15 10:17:07;;;;;;;;;;;;;;;18.47;38.34;100863.16;5232459;27;19941;-89
2024/04/15 10:19:33;;;;;;;;;;;;;;;18.53;38.01;100861.16;5234485;27;19938;-90
2024/04/15 10:21:59;;;;;;;;;;;;;;;18.57;37.74;100851.31;5205774;27;19931;-88
2024/04/15 10:24:25;;;;;;;;;;;;;;;18.71;37.77;100849.47;5225335;27;19932;-89
2024/04/15 10:26:51;;;;;;;;;;;;;;;18.94;37.89;100843.03;5227206;27;19943;-89
2024/04/15 10:29:19;;;;;;;;;;;;;;;19.18;37.88;100839.31;5233151;27;19941;-89
2024/04/15 10:31:50;;;;;;;;;;;;;;;19.37;37.65;100840.00;5230260;27;19936;-88
2024/04/15 10:34:15;;;;;;;;;;;;;;;19.37;36.94;100839.19;5238132;27;19938;-89
2024/04/15 10:36:43;;;;;;;;;;;;;;;19.24;37.08;100833.50;5234244;27;19939;-89
2024/04/15 10:39:14;;;;;;;;;;;;;;;19.17;36.94;100824.94;5207232;27;19941;-89
2024/04/15 10:41:40;;;;;;;;;;;;;;;19.16;37.33;100819.81;5229428;27;19948;-88
2024/04/15 10:44:05;;;;;;;;;;;;;;;19.19;36.90;100803.69;5222024;27;19934;-90
2024/04/15 10:46:30;;;;;;;;;;;;;;;19.24;36.65;100806.31;5227646;27;19933;-89
2024/04/15 10:48:55;;;;;;;;;;;;;;;19.27;36.60;100799.47;5227034;27;19947;-90
2024/04/15 10:51:21;;;;;;;;;;;;;;;19.35;36.50;100798.75;5232536;27;20404;-90
2024/04/15 10:53:46;;;;;;;;;;;;;;;19.46;36.57;100796.63;5227889;27;19938;-90
2024/04/15 10:56:11;;;;;;;;;;;;;;;19.53;36.31;100795.06;5230119;27;20313;-89
2024/04/15 10:58:36;;;;;;;;;;;;;;;19.53;36.12;100786.91;5232976;27;19968;-90
2024/04/15 11:01:02;;;;;;;;;;;;;;;19.62;36.20;100773.44;5231194;27;20018;-88
2024/04/15 11:03:27;;;;;;;;;;;;;;;19.81;36.60;100776.78;5227877;27;19939;-90
2024/04/15 11:05:53;;;;;;;;;;;;;;;19.94;35.99;100777.03;5229981;27;20017;-90
2024/04/15 11:08:18;;;;;;;;;;;;;;;19.90;36.00;100774.91;5223791;27;19940;-89
2024/04/15 11:10:43;;;;;;;;;;;;;;;19.69;35.72;100768.38;5241020;27;19938;-89
2024/04/15 11:13:10;;;;;;;;;;;;;;;19.52;36.29;100777.16;5233825;27;19959;-89
2024/04/15 11:15:35;;;;;;;;;;;;;;;19.41;36.15;100762.22;5220621;27;20418;-87
2024/04/15 11:18:01;;;;;;;;;;;;;;;19.47;36.13;100755.53;5234383;27;19932;-89
2024/04/15 11:20:26;;;;;;;;;;;;;;;19.48;35.85;100750.91;5235987;27;19931;-89
2024/04/15 11:22:52;;;;;;;;;;;;;;;19.50;36.00;100738.63;5235500;27;19940;-91
2024/04/15 11:25:18;;;;;;;;;;;;;;;19.56;36.38;100740.13;5233803;27;19938;-90
2024/04/15 11:27:48;;;;;;;;;;;;;;;19.75;36.56;100739.13;5230705;27;19939;-90
2024/04/15 11:30:19;;;;;;;;;;;;;;;19.94;36.28;100720.75;5238895;27;20027;-90
2024/04/15 11:32:44;;;;;;;;;;;;;;;20.10;36.45;100721.91;5240038;27;19931;-90
2024/04/15 11:35:10;;;;;;;;;;;;;;;20.28;36.21;100720.09;5227949;27;19932;-89
2024/04/15 11:37:35;;;;;;;;;;;;;;;20.41;36.31;100715.69;5236370;27;20384;-90
2024/04/15 11:40:01;;;;;;;;;;;;;;;20.56;36.46;100709.81;5234451;27;19951;-90
2024/04/15 11:42:27;;;;;;;;;;;;;;;20.68;36.25;100701.88;5240448;27;19931;-90
2024/04/15 11:44:52;;;;;;;;;;;;;;;20.73;35.65;100707.16;5234454;27;20063;-90
2024/04/15 11:47:18;;;;;;;;;;;;;;;20.61;35.94;100698.78;5231458;27;19951;-89
2024/04/15 11:49:44;;;;;;;;;;;;;;;20.53;36.43;100694.13;5236617;27;20190;-90
2024/04/15 11:52:09;;;;;;;;;;;;;;;20.54;35.46;100690.28;5250357;27;19941;-89
2024/04/15 11:54:36;;;;;;;;;;;;;;;20.53;36.23;100683.25;5239550;27;19937;-90
2024/04/15 11:57:01;;;;;;;;;;;;;;;20.57;36.47;100673.31;5247469;27;19939;-90
2024/04/15 11:59:26;;;;;;;;;;;;;;;20.55;35.94;100670.13;5248845;27;19931;-89
2024/04/15 12:01:55;;;;;;;;;;;;;;;20.47;35.94;100665.47;5242182;27;19932;-90
2024/04/15 12:04:20;;;;;;;;;;;;;;;20.41;35.96;100653.09;5235589;27;20426;-90
2024/04/15 12:06:46;;;;;;;;;;;;;;;20.36;36.05;100650.50;5238582;27;19931;-90
2024/04/15 12:09:11;;;;;;;;;;;;;;;20.29;36.03;100644.72;5233228;27;19932;-90
2024/04/15 12:11:36;;;;;;;;;;;;;;;20.30;36.49;100641.69;5232763;27;19959;-90
2024/04/15 12:14:01;;;;;;;;;;;;;;;20.36;36.32;100639.63;5237164;27;19980;-89
2024/04/15 12:16:27;;;;;;;;;;;;;;;20.32;36.05;100638.66;5237093;27;19932;-90
2024/04/15 12:18:52;;;;;;;;;;;;;;;20.30;36.11;100635.47;5246017;27;19931;-90
2024/04/15 12:21:17;;;;;;;;;;;;;;;20.26;36.08;100624.38;5240348;27;20262;-90
2024/04/15 12:23:42;;;;;;;;;;;;;;;20.29;36.26;100622.94;5237765;27;20001;-89
2024/04/15 12:26:08;;;;;;;;;;;;;;;20.30;36.49;100619.13;5241866;27;19960;-89